sensor_id;sensor_type;location;lat;lon;timestamp;temperature;humidity
28520;DHT22;15732;48.534;20.382;2023-04-03T00:01:29;7.00;99.90
28520;DHT22;15732;48.534;20.382;2023-04-03T00:03:56;7.00;99.90
28520;DHT22;15732;48.534;20.382;2023-04-03T00:06:27;7.00;99.90
28520;DHT22;15732;48.534;20.382;2023-04-03T00:08:59;7.10;99.90
28520;DHT22;15732;48.534;20.382;2023-04-03T00:11:30;7.00;99.90
28520;DHT22;15732;48.534;20.382;2023-04-03T00:13:58;7.00;99.90
28520;DHT22;15732;48.534;20.382;2023-04-03T00:16:25;6.90;99.90
28520;DHT22;15732;48.534;20.382;2023-04-03T00:18:57;6.90;99.90
28520;DHT22;15732;48.534;20.382;2023-04-03T00:21:28;6.90;99.90
28520;DHT22;15732;48.534;20.382;2023-04-03T00:23:55;6.90;99.90
28520;DHT22;15732;48.534;20.382;2023-04-03T00:26:23;6.90;99.90
28520;DHT22;15732;48.534;20.382;2023-04-03T00:28:54;6.90;99.90
28520;DHT22;15732;48.534;20.382;2023-04-03T00:31:22;6.90;99.90
28520;DHT22;15732;48.534;20.382;2023-04-03T00:33:49;7.00;99.90
28520;DHT22;15732;48.534;20.382;2023-04-03T00:36:21;7.00;99.90
28520;DHT22;15732;48.534;20.382;2023-04-03T00:38:48;7.00;99.90
28520;DHT22;15732;48.534;20.382;2023-04-03T00:41:16;6.90;99.90
28520;DHT22;15732;48.534;20.382;2023-04-03T00:43:47;7.00;99.90
28520;DHT22;15732;48.534;20.382;2023-04-03T00:46:18;6.90;99.90
28520;DHT22;15732;48.534;20.382;2023-04-03T00:48:47;6.90;99.90
28520;DHT22;15732;48.534;20.382;2023-04-03T00:51:16;6.80;99.90
28520;DHT22;15732;48.534;20.382;2023-04-03T00:53:50;6.80;99.90
28520;DHT22;15732;48.534;20.382;2023-04-03T00:56:21;6.80;99.90
28520;DHT22;15732;48.534;20.382;2023-04-03T00:58:54;6.80;99.90
28520;DHT22;15732;48.534;20.382;2023-04-03T01:01:27;6.80;99.90
28520;DHT22;15732;48.534;20.382;2023-04-03T01:03:54;6.70;99.90
28520;DHT22;15732;48.534;20.382;2023-04-03T01:06:27;6.70;99.90
28520;DHT22;15732;48.534;20.382;2023-04-03T01:08:55;6.70;99.90
28520;DHT22;15732;48.534;20.382;2023-04-03T01:11:22;6.60;99.90
28520;DHT22;15732;48.534;20.382;2023-04-03T01:13:50;6.60;99.90
28520;DHT22;15732;48.534;20.382;2023-04-03T01:16:16;6.60;99.90
28520;DHT22;15732;48.534;20.382;2023-04-03T01:18:47;6.50;99.90
28520;DHT22;15732;48.534;20.382;2023-04-03T01:22:02;6.60;99.90
28520;DHT22;15732;48.534;20.382;2023-04-03T01:24:34;6.50;99.90
28520;DHT22;15732;48.534;20.382;2023-04-03T01:27:04;6.50;99.90
28520;DHT22;15732;48.534;20.382;2023-04-03T01:29:31;6.50;99.90
28520;DHT22;15732;48.534;20.382;2023-04-03T01:32:00;6.50;99.90
28520;DHT22;15732;48.534;20.382;2023-04-03T01:34:29;6.40;99.90
28520;DHT22;15732;48.534;20.382;2023-04-03T01:36:56;6.40;99.90
28520;DHT22;15732;48.534;20.382;2023-04-03T01:39:23;6.50;99.90
28520;DHT22;15732;48.534;20.382;2023-04-03T01:41:50;6.40;99.90
28520;DHT22;15732;48.534;20.382;2023-04-03T01:44:21;6.50;99.90
28520;DHT22;15732;48.534;20.382;2023-04-03T01:46:49;6.50;99.90
28520;DHT22;15732;48.534;20.382;2023-04-03T01:49:16;6.50;99.90
28520;DHT22;15732;48.534;20.382;2023-04-03T01:51:47;6.60;99.90
28520;DHT22;15732;48.534;20.382;2023-04-03T01:54:14;6.50;99.90
28520;DHT22;15732;48.534;20.382;2023-04-03T01:56:41;6.60;99.90
28520;DHT22;15732;48.534;20.382;2023-04-03T01:59:13;6.70;99.90
28520;DHT22;15732;48.534;20.382;2023-04-03T02:01:46;6.70;99.90
28520;DHT22;15732;48.534;20.382;2023-04-03T02:04:13;6.70;99.90
28520;DHT22;15732;48.534;20.382;2023-04-03T02:06:41;6.60;99.90
28520;DHT22;15732;48.534;20.382;2023-04-03T02:09:08;6.50;99.90
28520;DHT22;15732;48.534;20.382;2023-04-03T02:11:36;6.50;99.90
28520;DHT22;15732;48.534;20.382;2023-04-03T02:14:03;6.50;99.90
28520;DHT22;15732;48.534;20.382;2023-04-03T02:16:30;6.50;99.90
28520;DHT22;15732;48.534;20.382;2023-04-03T02:18:57;6.40;99.90
28520;DHT22;15732;48.534;20.382;2023-04-03T02:21:25;6.30;99.90
28520;DHT22;15732;48.534;20.382;2023-04-03T02:23:52;6.30;99.90
28520;DHT22;15732;48.534;20.382;2023-04-03T02:26:19;6.30;99.90
28520;DHT22;15732;48.534;20.382;2023-04-03T02:28:51;6.20;99.90
28520;DHT22;15732;48.534;20.382;2023-04-03T02:31:18;6.20;99.90
28520;DHT22;15732;48.534;20.382;2023-04-03T02:33:46;6.10;99.90
28520;DHT22;15732;48.534;20.382;2023-04-03T02:36:13;6.10;99.90
28520;DHT22;15732;48.534;20.382;2023-04-03T02:38:40;6.00;99.90
28520;DHT22;15732;48.534;20.382;2023-04-03T02:41:09;6.00;99.90
28520;DHT22;15732;48.534;20.382;2023-04-03T02:43:38;6.00;99.90
28520;DHT22;15732;48.534;20.382;2023-04-03T02:46:05;6.00;99.90
28520;DHT22;15732;48.534;20.382;2023-04-03T02:48:32;5.90;99.90
28520;DHT22;15732;48.534;20.382;2023-04-03T02:51:00;5.90;99.90
28520;DHT22;15732;48.534;20.382;2023-04-03T02:53:27;5.90;99.90
28520;DHT22;15732;48.534;20.382;2023-04-03T02:55:59;5.90;99.90
28520;DHT22;15732;48.534;20.382;2023-04-03T02:58:26;5.90;99.90
28520;DHT22;15732;48.534;20.382;2023-04-03T03:00:57;5.90;99.90
28520;DHT22;15732;48.534;20.382;2023-04-03T03:03:28;5.80;99.90
28520;DHT22;15732;48.534;20.382;2023-04-03T03:06:27;5.80;99.90
28520;DHT22;15732;48.534;20.382;2023-04-03T03:08:54;5.80;99.90
28520;DHT22;15732;48.534;20.382;2023-04-03T03:11:21;5.80;99.90
28520;DHT22;15732;48.534;20.382;2023-04-03T03:13:52;5.80;99.90
28520;DHT22;15732;48.534;20.382;2023-04-03T03:16:19;5.80;99.90
28520;DHT22;15732;48.534;20.382;2023-04-03T03:18:47;5.80;99.90
28520;DHT22;15732;48.534;20.382;2023-04-03T03:21:14;5.80;99.90
28520;DHT22;15732;48.534;20.382;2023-04-03T03:23:41;5.60;99.90
28520;DHT22;15732;48.534;20.382;2023-04-03T03:26:12;5.70;99.90
28520;DHT22;15732;48.534;20.382;2023-04-03T03:28:43;5.60;99.90
28520;DHT22;15732;48.534;20.382;2023-04-03T03:31:11;5.60;99.90
28520;DHT22;15732;48.534;20.382;2023-04-03T03:33:42;5.60;99.90
28520;DHT22;15732;48.534;20.382;2023-04-03T03:36:10;5.60;99.90
28520;DHT22;15732;48.534;20.382;2023-04-03T03:38:41;5.60;99.90
28520;DHT22;15732;48.534;20.382;2023-04-03T03:41:08;5.60;99.90
28520;DHT22;15732;48.534;20.382;2023-04-03T03:43:35;5.60;99.90
28520;DHT22;15732;48.534;20.382;2023-04-03T03:46:07;5.60;99.90
28520;DHT22;15732;48.534;20.382;2023-04-03T03:48:34;5.50;99.90
28520;DHT22;15732;48.534;20.382;2023-04-03T03:51:02;5.50;99.90
28520;DHT22;15732;48.534;20.382;2023-04-03T03:53:29;5.40;99.90
28520;DHT22;15732;48.534;20.382;2023-04-03T03:55:56;5.40;99.90
28520;DHT22;15732;48.534;20.382;2023-04-03T03:58:27;5.30;99.90
28520;DHT22;15732;48.534;20.382;2023-04-03T04:00:55;5.30;99.90
28520;DHT22;15732;48.534;20.382;2023-04-03T04:03:22;5.30;99.90
28520;DHT22;15732;48.534;20.382;2023-04-03T04:05:49;5.30;99.90
28520;DHT22;15732;48.534;20.382;2023-04-03T04:08:17;5.20;99.90
28520;DHT22;15732;48.534;20.382;2023-04-03T04:10:44;5.30;99.90
28520;DHT22;15732;48.534;20.382;2023-04-03T04:13:16;5.30;99.90
28520;DHT22;15732;48.534;20.382;2023-04-03T04:15:43;5.40;99.90
28520;DHT22;15732;48.534;20.382;2023-04-03T04:18:10;5.40;99.90
28520;DHT22;15732;48.534;20.382;2023-04-03T04:20:37;5.30;99.90
28520;DHT22;15732;48.534;20.382;2023-04-03T04:23:04;5.30;99.90
28520;DHT22;15732;48.534;20.382;2023-04-03T04:25:31;5.30;99.90
28520;DHT22;15732;48.534;20.382;2023-04-03T04:27:59;5.40;99.90
28520;DHT22;15732;48.534;20.382;2023-04-03T04:30:27;5.30;99.90
28520;DHT22;15732;48.534;20.382;2023-04-03T04:32:54;5.20;99.90
28520;DHT22;15732;48.534;20.382;2023-04-03T04:35:25;5.20;99.90
28520;DHT22;15732;48.534;20.382;2023-04-03T04:37:53;5.20;99.90
28520;DHT22;15732;48.534;20.382;2023-04-03T04:40:24;5.20;99.90
28520;DHT22;15732;48.534;20.382;2023-04-03T04:42:52;5.40;99.90
28520;DHT22;15732;48.534;20.382;2023-04-03T04:45:18;5.60;99.90
28520;DHT22;15732;48.534;20.382;2023-04-03T04:47:46;5.70;99.90
28520;DHT22;15732;48.534;20.382;2023-04-03T04:50:13;5.80;99.90
28520;DHT22;15732;48.534;20.382;2023-04-03T04:52:44;5.80;99.90
28520;DHT22;15732;48.534;20.382;2023-04-03T04:55:11;5.90;99.90
28520;DHT22;15732;48.534;20.382;2023-04-03T04:57:39;6.00;99.90
28520;DHT22;15732;48.534;20.382;2023-04-03T05:00:11;6.10;99.90
28520;DHT22;15732;48.534;20.382;2023-04-03T05:02:40;6.10;99.90
28520;DHT22;15732;48.534;20.382;2023-04-03T05:05:12;6.10;99.90
28520;DHT22;15732;48.534;20.382;2023-04-03T05:07:39;6.00;99.90
28520;DHT22;15732;48.534;20.382;2023-04-03T05:10:09;6.10;99.90
28520;DHT22;15732;48.534;20.382;2023-04-03T05:12:40;6.00;99.90
28520;DHT22;15732;48.534;20.382;2023-04-03T05:15:09;6.10;99.90
28520;DHT22;15732;48.534;20.382;2023-04-03T05:17:41;6.20;99.90
28520;DHT22;15732;48.534;20.382;2023-04-03T05:20:10;6.20;99.90
28520;DHT22;15732;48.534;20.382;2023-04-03T05:22:37;6.10;99.90
28520;DHT22;15732;48.534;20.382;2023-04-03T05:25:04;6.20;99.90
28520;DHT22;15732;48.534;20.382;2023-04-03T05:27:33;6.20;99.90
28520;DHT22;15732;48.534;20.382;2023-04-03T05:30:01;6.20;99.90
28520;DHT22;15732;48.534;20.382;2023-04-03T05:32:28;6.20;99.90
28520;DHT22;15732;48.534;20.382;2023-04-03T05:35:00;6.30;99.90
28520;DHT22;15732;48.534;20.382;2023-04-03T05:37:27;6.40;99.90
28520;DHT22;15732;48.534;20.382;2023-04-03T05:39:54;6.40;99.90
28520;DHT22;15732;48.534;20.382;2023-04-03T05:42:22;6.50;99.90
28520;DHT22;15732;48.534;20.382;2023-04-03T05:44:52;6.50;99.90
28520;DHT22;15732;48.534;20.382;2023-04-03T05:47:20;6.60;99.90
28520;DHT22;15732;48.534;20.382;2023-04-03T05:49:47;6.60;99.90
28520;DHT22;15732;48.534;20.382;2023-04-03T05:52:21;6.70;99.90
28520;DHT22;15732;48.534;20.382;2023-04-03T05:54:49;6.80;99.90
28520;DHT22;15732;48.534;20.382;2023-04-03T05:57:16;6.80;99.90
28520;DHT22;15732;48.534;20.382;2023-04-03T05:59:47;6.90;99.90
28520;DHT22;15732;48.534;20.382;2023-04-03T06:02:16;6.80;99.90
28520;DHT22;15732;48.534;20.382;2023-04-03T06:04:44;6.70;99.90
28520;DHT22;15732;48.534;20.382;2023-04-03T06:07:14;6.70;99.90
28520;DHT22;15732;48.534;20.382;2023-04-03T06:09:42;6.70;99.90
28520;DHT22;15732;48.534;20.382;2023-04-03T06:12:09;6.70;99.90
28520;DHT22;15732;48.534;20.382;2023-04-03T06:14:37;6.80;99.90
28520;DHT22;15732;48.534;20.382;2023-04-03T06:17:04;6.80;99.90
28520;DHT22;15732;48.534;20.382;2023-04-03T06:19:32;6.90;99.90
28520;DHT22;15732;48.534;20.382;2023-04-03T06:22:00;6.80;99.90
28520;DHT22;15732;48.534;20.382;2023-04-03T06:24:27;6.90;99.90
28520;DHT22;15732;48.534;20.382;2023-04-03T06:26:59;6.90;99.90
28520;DHT22;15732;48.534;20.382;2023-04-03T06:29:26;6.80;99.90
28520;DHT22;15732;48.534;20.382;2023-04-03T06:31:54;6.90;99.90
28520;DHT22;15732;48.534;20.382;2023-04-03T06:34:21;6.90;99.90
28520;DHT22;15732;48.534;20.382;2023-04-03T06:36:49;6.90;99.90
28520;DHT22;15732;48.534;20.382;2023-04-03T06:39:21;7.00;99.90
28520;DHT22;15732;48.534;20.382;2023-04-03T06:41:51;7.00;99.90
28520;DHT22;15732;48.534;20.382;2023-04-03T06:44:22;6.90;99.90
28520;DHT22;15732;48.534;20.382;2023-04-03T06:46:50;7.00;99.90
28520;DHT22;15732;48.534;20.382;2023-04-03T06:49:18;6.90;99.90
28520;DHT22;15732;48.534;20.382;2023-04-03T06:51:46;7.10;99.90
28520;DHT22;15732;48.534;20.382;2023-04-03T06:54:13;6.90;99.90
28520;DHT22;15732;48.534;20.382;2023-04-03T06:56:41;7.10;99.90
28520;DHT22;15732;48.534;20.382;2023-04-03T06:59:10;7.20;99.90
28520;DHT22;15732;48.534;20.382;2023-04-03T07:01:40;7.30;99.90
28520;DHT22;15732;48.534;20.382;2023-04-03T07:04:07;7.50;99.90
28520;DHT22;15732;48.534;20.382;2023-04-03T07:06:39;7.60;99.90
28520;DHT22;15732;48.534;20.382;2023-04-03T07:09:12;7.60;99.90
28520;DHT22;15732;48.534;20.382;2023-04-03T07:11:39;7.50;99.90
28520;DHT22;15732;48.534;20.382;2023-04-03T07:14:07;7.50;99.90
28520;DHT22;15732;48.534;20.382;2023-04-03T07:16:34;7.50;99.90
28520;DHT22;15732;48.534;20.382;2023-04-03T07:19:05;7.50;99.90
28520;DHT22;15732;48.534;20.382;2023-04-03T07:21:37;7.40;99.90
28520;DHT22;15732;48.534;20.382;2023-04-03T07:24:05;7.50;99.90
28520;DHT22;15732;48.534;20.382;2023-04-03T07:26:33;7.40;99.90
28520;DHT22;15732;48.534;20.382;2023-04-03T07:29:00;7.40;99.90
28520;DHT22;15732;48.534;20.382;2023-04-03T07:31:28;7.40;99.90
28520;DHT22;15732;48.534;20.382;2023-04-03T07:33:55;7.50;99.90
28520;DHT22;15732;48.534;20.382;2023-04-03T07:36:26;7.70;99.90
28520;DHT22;15732;48.534;20.382;2023-04-03T07:38:58;7.90;99.90
28520;DHT22;15732;48.534;20.382;2023-04-03T07:41:29;8.00;99.90
28520;DHT22;15732;48.534;20.382;2023-04-03T07:43:57;8.00;99.90
28520;DHT22;15732;48.534;20.382;2023-04-03T07:46:28;8.10;99.90
28520;DHT22;15732;48.534;20.382;2023-04-03T07:48:55;8.10;99.90
28520;DHT22;15732;48.534;20.382;2023-04-03T07:51:22;8.00;99.90
28520;DHT22;15732;48.534;20.382;2023-04-03T07:53:54;7.70;99.90
28520;DHT22;15732;48.534;20.382;2023-04-03T07:56:25;8.10;99.90
28520;DHT22;15732;48.534;20.382;2023-04-03T07:58:53;8.00;99.90
28520;DHT22;15732;48.534;20.382;2023-04-03T08:01:24;8.10;99.90
28520;DHT22;15732;48.534;20.382;2023-04-03T08:03:51;8.10;99.90
28520;DHT22;15732;48.534;20.382;2023-04-03T08:06:22;8.10;99.90
28520;DHT22;15732;48.534;20.382;2023-04-03T08:08:49;8.00;99.90
28520;DHT22;15732;48.534;20.382;2023-04-03T08:11:17;8.10;99.90
28520;DHT22;15732;48.534;20.382;2023-04-03T08:13:45;8.10;99.90
28520;DHT22;15732;48.534;20.382;2023-04-03T08:16:16;8.10;99.90
28520;DHT22;15732;48.534;20.382;2023-04-03T08:18:43;8.10;99.90
28520;DHT22;15732;48.534;20.382;2023-04-03T08:21:11;8.10;99.90
28520;DHT22;15732;48.534;20.382;2023-04-03T08:23:42;8.20;99.90
28520;DHT22;15732;48.534;20.382;2023-04-03T08:26:13;7.90;99.90
28520;DHT22;15732;48.534;20.382;2023-04-03T08:28:44;8.00;99.90
28520;DHT22;15732;48.534;20.382;2023-04-03T08:31:18;7.70;99.90
28520;DHT22;15732;48.534;20.382;2023-04-03T08:33:45;7.80;99.90
28520;DHT22;15732;48.534;20.382;2023-04-03T08:36:26;7.80;99.90
28520;DHT22;15732;48.534;20.382;2023-04-03T08:38:57;7.80;99.90
28520;DHT22;15732;48.534;20.382;2023-04-03T08:41:34;7.60;99.90
28520;DHT22;15732;48.534;20.382;2023-04-03T08:47:18;8.00;99.90
28520;DHT22;15732;48.534;20.382;2023-04-03T08:50:04;8.10;99.90
28520;DHT22;15732;48.534;20.382;2023-04-03T08:52:50;8.30;99.90
28520;DHT22;15732;48.534;20.382;2023-04-03T08:58:01;8.80;99.90
28520;DHT22;15732;48.534;20.382;2023-04-03T09:00:34;9.10;99.90
28520;DHT22;15732;48.534;20.382;2023-04-03T09:03:04;8.90;99.90
28520;DHT22;15732;48.534;20.382;2023-04-03T09:05:41;9.00;99.90
28520;DHT22;15732;48.534;20.382;2023-04-03T09:08:30;9.00;99.90
28520;DHT22;15732;48.534;20.382;2023-04-03T09:11:21;9.10;99.90
28520;DHT22;15732;48.534;20.382;2023-04-03T09:19:22;8.60;99.90
28520;DHT22;15732;48.534;20.382;2023-04-03T09:21:57;8.50;99.90
28520;DHT22;15732;48.534;20.382;2023-04-03T09:24:28;8.60;99.90
28520;DHT22;15732;48.534;20.382;2023-04-03T09:27:04;8.40;99.90
28520;DHT22;15732;48.534;20.382;2023-04-03T09:29:41;8.60;99.90
28520;DHT22;15732;48.534;20.382;2023-04-03T09:34:53;8.80;99.90
28520;DHT22;15732;48.534;20.382;2023-04-03T09:37:41;8.80;99.90
28520;DHT22;15732;48.534;20.382;2023-04-03T09:43:00;8.80;99.90
28520;DHT22;15732;48.534;20.382;2023-04-03T09:45:32;9.10;99.90
28520;DHT22;15732;48.534;20.382;2023-04-03T09:53:44;8.90;99.90
28520;DHT22;15732;48.534;20.382;2023-04-03T09:56:18;9.10;99.90
28520;DHT22;15732;48.534;20.382;2023-04-03T10:01:43;9.20;99.90
28520;DHT22;15732;48.534;20.382;2023-04-03T10:04:22;9.30;99.90
28520;DHT22;15732;48.534;20.382;2023-04-03T10:06:52;9.10;99.90
28520;DHT22;15732;48.534;20.382;2023-04-03T10:09:32;8.60;99.90
28520;DHT22;15732;48.534;20.382;2023-04-03T10:12:03;8.50;99.90
28520;DHT22;15732;48.534;20.382;2023-04-03T10:14:57;8.50;99.90
28520;DHT22;15732;48.534;20.382;2023-04-03T10:25:34;8.70;99.90
28520;DHT22;15732;48.534;20.382;2023-04-03T10:28:47;8.30;99.90
28520;DHT22;15732;48.534;20.382;2023-04-03T10:31:28;8.30;99.90
28520;DHT22;15732;48.534;20.382;2023-04-03T10:39:45;8.20;99.90
28520;DHT22;15732;48.534;20.382;2023-04-03T10:45:03;8.30;99.90
28520;DHT22;15732;48.534;20.382;2023-04-03T10:50:58;8.70;99.90
28520;DHT22;15732;48.534;20.382;2023-04-03T10:56:43;8.90;99.90
28520;DHT22;15732;48.534;20.382;2023-04-03T11:02:12;8.70;99.90
28520;DHT22;15732;48.534;20.382;2023-04-03T11:04:53;8.70;99.90
28520;DHT22;15732;48.534;20.382;2023-04-03T11:07:29;8.70;99.90
28520;DHT22;15732;48.534;20.382;2023-04-03T11:13:01;8.40;99.90
28520;DHT22;15732;48.534;20.382;2023-04-03T11:15:32;8.60;99.90
28520;DHT22;15732;48.534;20.382;2023-04-03T11:18:15;8.80;99.90
28520;DHT22;15732;48.534;20.382;2023-04-03T11:21:25;8.90;99.90
28520;DHT22;15732;48.534;20.382;2023-04-03T11:23:53;9.10;99.90
28520;DHT22;15732;48.534;20.382;2023-04-03T11:26:27;9.10;99.90
28520;DHT22;15732;48.534;20.382;2023-04-03T11:29:03;8.90;99.90
28520;DHT22;15732;48.534;20.382;2023-04-03T11:37:25;8.90;99.90
28520;DHT22;15732;48.534;20.382;2023-04-03T11:39:59;8.70;99.90
28520;DHT22;15732;48.534;20.382;2023-04-03T11:42:42;8.70;99.90
28520;DHT22;15732;48.534;20.382;2023-04-03T11:46:15;8.80;99.90
28520;DHT22;15732;48.534;20.382;2023-04-03T11:48:47;8.60;99.90
28520;DHT22;15732;48.534;20.382;2023-04-03T11:53:43;8.20;99.90
28520;DHT22;15732;48.534;20.382;2023-04-03T12:01:53;8.10;99.90
28520;DHT22;15732;48.534;20.382;2023-04-03T12:04:23;8.10;99.90
28520;DHT22;15732;48.534;20.382;2023-04-03T12:07:00;8.10;99.90
28520;DHT22;15732;48.534;20.382;2023-04-03T12:12:35;8.30;99.90
28520;DHT22;15732;48.534;20.382;2023-04-03T12:21:07;8.20;99.90
28520;DHT22;15732;48.534;20.382;2023-04-03T12:28:57;8.30;99.90
28520;DHT22;15732;48.534;20.382;2023-04-03T12:31:55;8.20;99.90
28520;DHT22;15732;48.534;20.382;2023-04-03T12:46:04;7.90;99.90
28520;DHT22;15732;48.534;20.382;2023-04-03T12:48:51;7.90;99.90
28520;DHT22;15732;48.534;20.382;2023-04-03T12:54:11;8.00;99.90
28520;DHT22;15732;48.534;20.382;2023-04-03T12:56:43;7.90;99.90
28520;DHT22;15732;48.534;20.382;2023-04-03T12:59:23;8.00;99.90
28520;DHT22;15732;48.534;20.382;2023-04-03T13:01:56;7.70;99.90
28520;DHT22;15732;48.534;20.382;2023-04-03T13:04:23;7.80;99.90
28520;DHT22;15732;48.534;20.382;2023-04-03T13:06:51;7.90;99.90
28520;DHT22;15732;48.534;20.382;2023-04-03T13:09:27;7.90;99.90
28520;DHT22;15732;48.534;20.382;2023-04-03T13:12:13;7.90;99.90
28520;DHT22;15732;48.534;20.382;2023-04-03T13:14:50;7.90;99.90
28520;DHT22;15732;48.534;20.382;2023-04-03T13:17:18;7.80;99.90
28520;DHT22;15732;48.534;20.382;2023-04-03T13:19:46;7.70;99.90
28520;DHT22;15732;48.534;20.382;2023-04-03T13:22:35;7.60;99.90
28520;DHT22;15732;48.534;20.382;2023-04-03T13:25:09;7.50;99.90
28520;DHT22;15732;48.534;20.382;2023-04-03T13:27:39;7.50;99.90
28520;DHT22;15732;48.534;20.382;2023-04-03T13:30:38;7.30;99.90
28520;DHT22;15732;48.534;20.382;2023-04-03T13:33:20;7.40;99.90
28520;DHT22;15732;48.534;20.382;2023-04-03T13:36:00;7.30;99.90
28520;DHT22;15732;48.534;20.382;2023-04-03T13:38:27;7.40;99.90
28520;DHT22;15732;48.534;20.382;2023-04-03T13:40:59;7.40;99.90
28520;DHT22;15732;48.534;20.382;2023-04-03T13:43:35;7.40;99.90
28520;DHT22;15732;48.534;20.382;2023-04-03T13:46:27;7.50;99.90
28520;DHT22;15732;48.534;20.382;2023-04-03T13:48:54;7.00;99.90
28520;DHT22;15732;48.534;20.382;2023-04-03T13:51:45;7.00;99.90
28520;DHT22;15732;48.534;20.382;2023-04-03T13:54:20;7.00;99.90
28520;DHT22;15732;48.534;20.382;2023-04-03T13:56:54;7.00;99.90
28520;DHT22;15732;48.534;20.382;2023-04-03T13:59:31;7.00;99.90
28520;DHT22;15732;48.534;20.382;2023-04-03T14:07:03;7.10;99.90
28520;DHT22;15732;48.534;20.382;2023-04-03T14:09:31;7.00;99.90
28520;DHT22;15732;48.534;20.382;2023-04-03T14:12:21;7.00;99.90
28520;DHT22;15732;48.534;20.382;2023-04-03T14:14:54;7.10;99.90
28520;DHT22;15732;48.534;20.382;2023-04-03T14:17:23;7.00;99.90
28520;DHT22;15732;48.534;20.382;2023-04-03T14:19:55;7.00;99.90
28520;DHT22;15732;48.534;20.382;2023-04-03T14:22:26;6.80;99.90
28520;DHT22;15732;48.534;20.382;2023-04-03T14:24:55;6.50;99.90
28520;DHT22;15732;48.534;20.382;2023-04-03T14:27:43;6.50;99.90
28520;DHT22;15732;48.534;20.382;2023-04-03T14:30:40;6.50;99.90
28520;DHT22;15732;48.534;20.382;2023-04-03T14:33:14;6.50;99.90
28520;DHT22;15732;48.534;20.382;2023-04-03T14:35:42;6.30;99.90
28520;DHT22;15732;48.534;20.382;2023-04-03T14:38:35;6.30;99.90
28520;DHT22;15732;48.534;20.382;2023-04-03T14:41:06;6.30;99.90
28520;DHT22;15732;48.534;20.382;2023-04-03T14:43:34;6.40;99.90
28520;DHT22;15732;48.534;20.382;2023-04-03T14:46:01;6.20;99.90
28520;DHT22;15732;48.534;20.382;2023-04-03T14:48:33;6.10;99.90
28520;DHT22;15732;48.534;20.382;2023-04-03T14:51:00;6.00;99.90
28520;DHT22;15732;48.534;20.382;2023-04-03T14:53:27;6.10;99.90
28520;DHT22;15732;48.534;20.382;2023-04-03T14:55:57;6.10;99.90
28520;DHT22;15732;48.534;20.382;2023-04-03T14:58:24;5.80;99.90
28520;DHT22;15732;48.534;20.382;2023-04-03T15:00:56;5.80;99.90
28520;DHT22;15732;48.534;20.382;2023-04-03T15:03:23;5.70;99.90
28520;DHT22;15732;48.534;20.382;2023-04-03T15:05:55;5.60;99.90
28520;DHT22;15732;48.534;20.382;2023-04-03T15:08:26;5.50;99.90
28520;DHT22;15732;48.534;20.382;2023-04-03T15:10:56;5.40;99.90
28520;DHT22;15732;48.534;20.382;2023-04-03T15:13:24;5.30;99.90
28520;DHT22;15732;48.534;20.382;2023-04-03T15:15:55;5.30;99.90
28520;DHT22;15732;48.534;20.382;2023-04-03T15:18:25;5.30;99.90
28520;DHT22;15732;48.534;20.382;2023-04-03T15:20:55;5.30;99.90
28520;DHT22;15732;48.534;20.382;2023-04-03T15:23:23;5.30;99.90
28520;DHT22;15732;48.534;20.382;2023-04-03T15:25:53;5.30;99.90
28520;DHT22;15732;48.534;20.382;2023-04-03T15:28:30;5.30;99.90
28520;DHT22;15732;48.534;20.382;2023-04-03T15:31:01;5.20;99.90
28520;DHT22;15732;48.534;20.382;2023-04-03T15:33:29;5.10;99.10
28520;DHT22;15732;48.534;20.382;2023-04-03T15:36:00;5.10;99.30
28520;DHT22;15732;48.534;20.382;2023-04-03T15:38:28;5.10;98.60
28520;DHT22;15732;48.534;20.382;2023-04-03T15:40:55;5.00;98.80
28520;DHT22;15732;48.534;20.382;2023-04-03T15:43:22;4.90;97.90
28520;DHT22;15732;48.534;20.382;2023-04-03T15:45:50;4.90;99.50
28520;DHT22;15732;48.534;20.382;2023-04-03T15:48:21;5.00;99.50
28520;DHT22;15732;48.534;20.382;2023-04-03T15:50:52;4.90;99.60
28520;DHT22;15732;48.534;20.382;2023-04-03T15:53:20;4.70;99.90
28520;DHT22;15732;48.534;20.382;2023-04-03T15:55:51;4.60;99.90
28520;DHT22;15732;48.534;20.382;2023-04-03T15:58:18;4.60;99.90
28520;DHT22;15732;48.534;20.382;2023-04-03T16:00:46;4.50;99.70
28520;DHT22;15732;48.534;20.382;2023-04-03T16:03:18;4.60;99.40
28520;DHT22;15732;48.534;20.382;2023-04-03T16:05:45;4.60;98.90
28520;DHT22;15732;48.534;20.382;2023-04-03T16:08:17;4.50;97.40
28520;DHT22;15732;48.534;20.382;2023-04-03T16:10:44;4.50;97.30
28520;DHT22;15732;48.534;20.382;2023-04-03T16:13:14;4.50;97.80
28520;DHT22;15732;48.534;20.382;2023-04-03T16:15:45;4.50;97.90
28520;DHT22;15732;48.534;20.382;2023-04-03T16:18:15;4.40;97.80
28520;DHT22;15732;48.534;20.382;2023-04-03T16:20:44;4.40;97.80
28520;DHT22;15732;48.534;20.382;2023-04-03T16:23:12;4.30;98.00
28520;DHT22;15732;48.534;20.382;2023-04-03T16:25:39;4.30;98.40
28520;DHT22;15732;48.534;20.382;2023-04-03T16:28:13;4.30;98.80
28520;DHT22;15732;48.534;20.382;2023-04-03T16:30:41;4.30;99.10
28520;DHT22;15732;48.534;20.382;2023-04-03T16:33:09;4.20;99.00
28520;DHT22;15732;48.534;20.382;2023-04-03T16:35:40;4.00;99.00
28520;DHT22;15732;48.534;20.382;2023-04-03T16:38:12;4.10;99.00
28520;DHT22;15732;48.534;20.382;2023-04-03T16:40:39;4.00;99.40
28520;DHT22;15732;48.534;20.382;2023-04-03T16:43:11;4.00;99.50
28520;DHT22;15732;48.534;20.382;2023-04-03T16:45:42;3.90;99.90
28520;DHT22;15732;48.534;20.382;2023-04-03T16:48:09;3.90;99.90
28520;DHT22;15732;48.534;20.382;2023-04-03T16:50:37;3.90;99.90
28520;DHT22;15732;48.534;20.382;2023-04-03T16:53:04;3.90;99.90
28520;DHT22;15732;48.534;20.382;2023-04-03T16:55:35;3.90;99.40
28520;DHT22;15732;48.534;20.382;2023-04-03T16:58:02;3.70;99.30
28520;DHT22;15732;48.534;20.382;2023-04-03T17:00:32;3.70;99.20
28520;DHT22;15732;48.534;20.382;2023-04-03T17:03:00;3.60;99.00
28520;DHT22;15732;48.534;20.382;2023-04-03T17:05:31;3.60;98.90
28520;DHT22;15732;48.534;20.382;2023-04-03T17:07:58;3.50;99.00
28520;DHT22;15732;48.534;20.382;2023-04-03T17:10:30;3.60;99.10
28520;DHT22;15732;48.534;20.382;2023-04-03T17:13:04;3.60;99.10
28520;DHT22;15732;48.534;20.382;2023-04-03T17:15:31;3.60;99.20
28520;DHT22;15732;48.534;20.382;2023-04-03T17:17:59;3.70;99.40
28520;DHT22;15732;48.534;20.382;2023-04-03T17:20:26;3.70;99.30
28520;DHT22;15732;48.534;20.382;2023-04-03T17:22:53;3.60;99.80
28520;DHT22;15732;48.534;20.382;2023-04-03T17:25:21;3.60;99.70
28520;DHT22;15732;48.534;20.382;2023-04-03T17:27:48;3.60;99.90
28520;DHT22;15732;48.534;20.382;2023-04-03T17:30:16;3.60;99.90
28520;DHT22;15732;48.534;20.382;2023-04-03T17:32:44;3.70;99.90
28520;DHT22;15732;48.534;20.382;2023-04-03T17:35:11;3.60;99.90
28520;DHT22;15732;48.534;20.382;2023-04-03T17:37:39;3.60;99.90